Daufuskie Island, SC (29915)

9:15 PM EDT on August 29, 2016 (GMT -0400)
Baynard Cove | | Change Station
Active Advisory: Coastal Hazard Statement

Elev 23 ft 32.12 °N, 80.82 °W | Updated 3 seconds ago

Clear
Clear
78.5 °F
Feels Like 82 °F
N
0.0
Wind Variable Wind from West
Gusts 1.0 mph

Today
High -- | Low -- °F
--% Chance of Precip.
Yesterday
High -- | Low -- °F
Precip. -- in
Pressure 30.04 in
Visibility 10.0 miles
Clouds Clear
Heat Index 82 °F
Dew Point 76 °F
Humidity 91%
Rainfall 0.00 in
Snow Depth Not available.
6:57 AM 7:50 PM
Waning Crescent, 6% visible
METAR KHXD 300055Z AUTO VRB03KT 10SM CLR 26/24 A3004 RMK AO2 LTG DSNT SE
Pressure 30.04 in
Visibility 10.0 miles
Clouds Clear
Heat Index 82 °F
Dew Point 76 °F
Humidity 91%
Rainfall 0.00 in
Snow Depth Not available.
6:57 AM 7:50 PM
Waning Crescent, 6% visible
METAR KHXD 300055Z AUTO VRB03KT 10SM CLR 26/24 A3004 RMK AO2 LTG DSNT SE
Tropical Depression Nine was centered about 170 miles west-southwest of Key West, Florida, as of late Monday morning. The depression may struggle a bit in the southern Gulf of Mexico before finally making a Gulf Coast landfall later this week with soaking rain and gusty winds.

This latest system was designated a tropical depression Sunday after a Hurricane Hunter reconnaissance mission finally found a sufficiently organized low-pressure center with collocated shower and thunderstorm activity.

10-Day Weather Forecast

Almanac

Astronomy

Aug. 29, 2016 Rise Set
Actual Time
Civil Twilight
Nautical Twilight
Astronomical Twilight
Moon
Length of Visible Light
Length of Day
Tomorrow will be .
, % of the Moon is Illuminated

Today's Extremes

State Highs State Lows

Community

WunderPhotos

Upload Photos

1,935,709 photos uploaded!

WunderBlog® & News

Nearby

Air Quality

  Air Quality AQ Index Pollutant
Not available.

Snow Depth

Station Depth Elevation

Earthquake Activity

City Distance Mag. Time & Date
Minimum magnitude displayed is 2.5.

Coastal Water Temperatures

Place Temperature

Stations

Nearby Weather Stations

Station Location Temp. Windchill Dew Point Humidity Wind Precip. Elev Updated Type
                   

Watches & Warnings

Coastal Hazard Statement
Issued: 3:29 PM EDT Aug. 29, 2016 – National Weather Service

... High rip current risk now in effect through Tuesday evening...

* rip currents... wind and wave conditions support the
development of very strong rip currents. These rip currents
will be life threatening to anyone who enters the surf.

Precautionary/preparedness actions...

No one should enter the surf due to life threatening rip
currents.